Time;durP1;ratioP1;P1;durP2;ratioP2;P2;SDS_P1;SDS_P2;PMS_P1;PMS_P2;Temp;Humidity;BMP_temperature;BMP_pressure;BME280_temperature;BME280_humidity;BME280_pressure;Samples;Min_cycle;Max_cycle;Signal;HPM_P1;HPM_P2
2022/07/28 00:02:04;;;;;;;1.27;0.40;;;14.50;93.80;;;;;;5061696;28;20044;-81
2022/07/28 00:04:33;;;;;;;;;;;14.50;93.80;;;;;;5044514;28;20032;-81
2022/07/28 00:07:05;;;;;;;1.65;0.50;;;14.50;93.80;;;;;;5038844;28;19987;-81
2022/07/28 00:10:00;;;;;;;2.67;0.40;;;14.50;93.90;;;;;;5042563;28;20053;-81
2022/07/28 00:12:32;;;;;;;4.88;0.65;;;14.50;93.90;;;;;;5042403;28;20032;-81
2022/07/28 00:15:39;;;;;;;1.30;0.38;;;14.50;94.00;;;;;;5021893;28;20059;-81
2022/07/28 00:18:15;;;;;;;3.08;0.40;;;14.40;94.00;;;;;;5022966;28;20055;-81
2022/07/28 00:21:05;;;;;;;2.95;0.30;;;14.40;94.20;;;;;;5005844;28;20053;-81
2022/07/28 00:23:37;;;;;;;1.88;0.40;;;14.30;94.20;;;;;;5024732;28;20048;-82
2022/07/28 00:26:26;;;;;;;2.08;0.30;;;14.30;94.30;;;;;;5019055;28;20029;-81
2022/07/28 00:29:16;;;;;;;2.60;0.47;;;14.20;94.40;;;;;;5041604;28;20045;-81
2022/07/28 00:32:15;;;;;;;2.55;0.30;;;14.20;94.50;;;;;;5021668;28;20056;-81
2022/07/28 00:34:50;;;;;;;2.00;0.30;;;14.10;94.60;;;;;;5023700;28;20085;-81
2022/07/28 00:37:40;;;;;;;1.98;0.40;;;14.10;94.70;;;;;;5041171;28;20434;-82
2022/07/28 00:41:09;;;;;;;1.70;0.30;;;14.10;94.90;;;;;;5037929;28;20037;-82
2022/07/28 00:43:13;;;;;;;0.95;0.30;;;14.00;94.90;;;;;;5042529;28;20029;-81
2022/07/28 00:45:42;;;;;;;2.30;0.30;;;14.00;94.90;;;;;;5038198;28;20025;-82
2022/07/28 00:48:18;;;;;;;1.50;0.30;;;14.00;94.90;;;;;;5026887;28;20862;-81
2022/07/28 00:51:13;;;;;;;1.97;0.33;;;14.00;95.00;;;;;;4999268;28;20045;-81
2022/07/28 00:53:40;;;;;;;2.10;0.30;;;14.00;95.00;;;;;;5023062;28;20754;-81
2022/07/28 00:56:22;;;;;;;1.33;0.30;;;14.00;95.20;;;;;;5008650;28;20041;-82
2022/07/28 00:59:11;;;;;;;2.05;0.40;;;14.00;95.30;;;;;;5023606;28;20056;-81
2022/07/28 01:02:31;;;;;;;1.70;0.60;;;14.00;95.30;;;;;;5021487;28;20049;-81
2022/07/28 01:05:14;;;;;;;2.15;0.40;;;14.00;95.30;;;;;;5004728;28;20104;-82
2022/07/28 01:08:11;;;;;;;0.68;0.40;;;14.00;95.40;;;;;;4992129;28;20057;-82
2022/07/28 01:11:03;;;;;;;1.00;0.30;;;14.00;95.40;;;;;;5030294;28;20056;-82
2022/07/28 01:14:06;;;;;;;2.33;0.30;;;14.00;95.50;;;;;;5043139;28;20033;-82
2022/07/28 01:16:55;;;;;;;1.55;0.30;;;13.90;95.60;;;;;;5029755;28;20048;-83
2022/07/28 01:19:40;;;;;;;1.67;0.30;;;13.90;95.60;;;;;;5027125;28;20037;-83
2022/07/28 01:22:33;;;;;;;1.50;0.32;;;13.90;95.70;;;;;;5026055;28;20416;-83
2022/07/28 01:25:48;;;;;;;1.35;0.35;;;13.90;95.80;;;;;;5021825;28;20396;-82
2022/07/28 01:28:37;;;;;;;3.90;0.85;;;13.80;95.90;;;;;;5026505;28;20040;-82
2022/07/28 01:31:25;;;;;;;2.25;0.50;;;13.70;96.00;;;;;;5061596;28;20384;-82
2022/07/28 01:34:26;;;;;;;2.40;0.22;;;13.70;96.10;;;;;;5045050;28;20063;-82
2022/07/28 01:37:53;;;;;;;0.95;0.30;;;13.60;96.40;;;;;;5026256;28;20044;-82
2022/07/28 01:40:41;;;;;;;1.05;0.20;;;13.60;96.30;;;;;;5019619;28;20029;-83
2022/07/28 01:43:17;;;;;;;3.28;0.32;;;13.50;96.40;;;;;;5010434;28;20031;-82
2022/07/28 01:46:01;;;;;;;3.55;0.32;;;13.50;96.50;;;;;;5007278;28;20063;-82
2022/07/28 01:48:43;;;;;;;4.32;0.30;;;13.40;96.70;;;;;;5016439;28;20067;-83
2022/07/28 01:51:35;;;;;;;2.70;0.30;;;13.40;96.70;;;;;;5028517;28;20052;-82
2022/07/28 01:54:02;;;;;;;;;;;13.30;96.80;;;;;;5025064;28;20036;-82
2022/07/28 01:56:37;;;;;;;1.55;0.30;;;13.30;96.80;;;;;;5008825;28;19936;-82
2022/07/28 01:59:08;;;;;;;2.78;0.40;;;13.30;97.00;;;;;;5026959;28;20037;-82
2022/07/28 02:01:44;;;;;;;2.17;0.32;;;13.30;97.00;;;;;;5009179;28;20055;-82
2022/07/28 02:04:25;;;;;;;1.27;0.30;;;13.30;97.10;;;;;;5039948;28;20091;-82
2022/07/28 02:07:13;;;;;;;1.67;0.30;;;13.20;97.10;;;;;;5006912;28;20040;-82
2022/07/28 02:09:59;;;;;;;1.67;0.35;;;13.20;97.30;;;;;;4989727;28;20049;-82
2022/07/28 02:12:47;;;;;;;1.98;0.30;;;13.20;97.40;;;;;;5009752;28;20599;-82
2022/07/28 02:15:17;;;;;;;1.58;0.30;;;13.10;97.50;;;;;;5018708;28;20044;-82
2022/07/28 02:17:47;;;;;;;2.55;0.45;;;13.10;97.60;;;;;;5022090;28;20037;-82
2022/07/28 02:20:21;;;;;;;1.75;0.30;;;13.10;97.70;;;;;;4990739;28;20045;-82
2022/07/28 02:23:04;;;;;;;3.80;0.40;;;13.10;97.80;;;;;;5006508;28;20141;-82
2022/07/28 02:26:08;;;;;;;1.85;0.40;;;13.00;97.90;;;;;;5003150;28;20041;-82
2022/07/28 02:28:50;;;;;;;2.10;0.30;;;13.10;98.20;;;;;;4986834;28;20136;-82
2022/07/28 02:31:28;;;;;;;2.38;0.38;;;13.00;98.30;;;;;;4996762;28;20136;-82
2022/07/28 02:34:12;;;;;;;2.00;0.45;;;13.00;98.30;;;;;;5002905;28;21447;-82
2022/07/28 02:37:10;;;;;;;1.23;0.38;;;12.90;98.30;;;;;;5021254;28;20049;-82
2022/07/28 02:40:12;;;;;;;1.65;0.40;;;12.90;98.40;;;;;;4988374;28;20539;-82
2022/07/28 02:42:49;;;;;;;5.47;0.63;;;12.90;98.50;;;;;;4992482;28;20041;-82
2022/07/28 02:45:29;;;;;;;;;;;;;;;;;;;;;
2022/07/28 02:48:06;;;;;;;1.77;0.40;;;12.90;98.70;;;;;;5007693;28;20049;-82
2022/07/28 02:50:39;;;;;;;2.47;0.45;;;12.90;98.90;;;;;;5013791;28;20045;-82
2022/07/28 02:53:32;;;;;;;4.20;0.43;;;12.90;98.90;;;;;;5042377;28;20033;-82
2022/07/28 02:56:09;;;;;;;1.38;0.40;;;12.90;99.00;;;;;;5004753;28;20051;-81
2022/07/28 02:58:44;;;;;;;1.98;0.40;;;12.80;99.00;;;;;;5026211;28;20056;-82
2022/07/28 03:01:15;;;;;;;2.50;0.40;;;12.80;99.00;;;;;;5041382;28;20033;-82
2022/07/28 03:03:43;;;;;;;1.92;0.40;;;12.80;99.20;;;;;;5041512;28;20056;-82
2022/07/28 03:06:12;;;;;;;3.67;0.50;;;12.90;99.30;;;;;;5041246;28;20025;-82
2022/07/28 03:08:49;;;;;;;2.75;0.40;;;12.90;99.30;;;;;;5044806;28;20017;-82
2022/07/28 03:11:19;;;;;;;3.30;0.40;;;12.90;99.30;;;;;;5024397;28;20025;-82
2022/07/28 03:13:53;;;;;;;3.58;0.88;;;12.80;99.60;;;;;;5039611;28;20026;-82
2022/07/28 03:16:19;;;;;;;3.30;0.60;;;12.90;99.40;;;;;;5023382;28;20487;-81
2022/07/28 03:18:50;;;;;;;3.65;0.50;;;12.80;99.50;;;;;;5008748;28;20026;-85
2022/07/28 03:21:17;;;;;;;4.10;0.65;;;12.80;99.50;;;;;;5028552;28;20044;-85
2022/07/28 03:23:46;;;;;;;3.78;0.60;;;12.80;99.50;;;;;;5008215;28;20511;-85
2022/07/28 03:26:29;;;;;;;3.90;0.50;;;12.80;99.50;;;;;;5009455;28;20052;-84
2022/07/28 03:28:59;;;;;;;4.63;0.40;;;12.90;99.60;;;;;;5039112;28;20402;-85
2022/07/28 03:31:30;;;;;;;;;;;12.90;99.60;;;;;;5009508;28;20045;-85
2022/07/28 03:33:59;;;;;;;4.45;0.50;;;12.90;99.60;;;;;;5038940;28;19916;-84
2022/07/28 03:36:34;;;;;;;2.63;0.30;;;12.80;99.70;;;;;;5039599;28;20033;-85
2022/07/28 03:39:03;;;;;;;1.77;0.35;;;12.80;99.70;;;;;;5012761;28;20033;-84
2022/07/28 03:41:34;;;;;;;3.70;0.40;;;12.80;99.70;;;;;;5039906;28;20030;-85
2022/07/28 03:44:04;;;;;;;3.33;0.45;;;12.90;99.80;;;;;;5022886;28;20048;-84
2022/07/28 03:46:31;;;;;;;2.92;0.50;;;12.80;99.80;;;;;;5025181;28;20484;-85
2022/07/28 03:49:15;;;;;;;6.13;0.40;;;12.80;99.90;;;;;;5041642;28;20025;-85
2022/07/28 03:51:43;;;;;;;3.95;0.75;;;12.80;99.90;;;;;;5024498;28;20048;-84
2022/07/28 03:54:12;;;;;;;2.67;0.50;;;12.80;99.90;;;;;;5036194;28;20040;-84
2022/07/28 03:56:41;;;;;;;1.65;0.30;;;12.80;99.90;;;;;;5011254;28;20033;-84
2022/07/28 03:59:10;;;;;;;1.88;0.47;;;12.80;99.90;;;;;;5062627;28;20040;-84
2022/07/28 04:01:36;;;;;;;3.53;0.45;;;12.80;99.90;;;;;;5061170;28;20044;-84
2022/07/28 04:04:03;;;;;;;4.07;0.50;;;12.80;99.90;;;;;;5058440;28;21082;-84
2022/07/28 04:06:29;;;;;;;2.65;0.40;;;12.80;99.90;;;;;;5044603;28;20071;-84
2022/07/28 04:08:56;;;;;;;1.42;0.40;;;12.80;99.90;;;;;;5061721;28;20040;-81
2022/07/28 04:11:22;;;;;;;1.35;0.50;;;12.80;99.90;;;;;;5060987;28;20361;-81
2022/07/28 04:13:48;;;;;;;2.70;0.40;;;12.80;99.90;;;;;;5029311;28;20032;-81
2022/07/28 04:16:15;;;;;;;2.05;0.40;;;12.80;99.90;;;;;;5014592;28;20028;-80
2022/07/28 04:18:41;;;;;;;3.92;0.30;;;12.80;99.90;;;;;;5036089;28;20036;-81
2022/07/28 04:21:16;;;;;;;3.17;0.43;;;12.90;99.90;;;;;;5066234;28;20040;-81
2022/07/28 04:23:50;;;;;;;2.20;0.60;;;12.90;99.90;;;;;;5067139;28;20584;-81
2022/07/28 04:26:25;;;;;;;2.45;0.47;;;12.90;99.90;;;;;;5067444;28;20048;-81
2022/07/28 04:28:53;;;;;;;3.00;0.50;;;13.00;99.90;;;;;;5028741;28;20034;-81
2022/07/28 04:31:20;;;;;;;2.40;0.50;;;13.00;99.90;;;;;;5046444;28;20040;-85
2022/07/28 04:33:46;;;;;;;4.00;0.55;;;13.10;99.90;;;;;;5043254;28;20025;-80
2022/07/28 04:36:16;;;;;;;5.30;0.70;;;13.20;99.90;;;;;;5031018;28;20037;-81
2022/07/28 04:38:42;;;;;;;5.07;0.70;;;13.20;99.90;;;;;;5046309;28;20021;-84
2022/07/28 04:41:09;;;;;;;3.63;0.50;;;13.20;99.90;;;;;;5060809;28;20379;-84
2022/07/28 04:43:44;;;;;;;2.47;0.40;;;13.30;99.90;;;;;;5042471;28;20586;-84
2022/07/28 04:46:11;;;;;;;2.25;0.40;;;13.40;99.90;;;;;;5026610;28;20048;-84
2022/07/28 04:48:40;;;;;;;3.20;0.63;;;13.50;99.90;;;;;;5043496;28;20036;-84
2022/07/28 04:51:14;;;;;;;3.10;0.50;;;13.60;99.90;;;;;;5027922;28;20060;-84
2022/07/28 04:53:53;;;;;;;4.25;0.50;;;13.60;99.90;;;;;;5058216;28;20044;-85
2022/07/28 04:56:23;;;;;;;3.63;0.50;;;13.70;99.90;;;;;;5059043;28;20045;-84
2022/07/28 04:58:50;;;;;;;4.57;0.40;;;13.70;99.90;;;;;;5059977;28;20021;-84
2022/07/28 05:01:20;;;;;;;4.72;0.52;;;13.70;99.90;;;;;;5044552;28;20044;-83
2022/07/28 05:03:50;;;;;;;2.65;0.40;;;13.70;99.90;;;;;;5059539;28;20028;-83
2022/07/28 05:06:20;;;;;;;4.03;0.52;;;13.80;99.90;;;;;;5045880;28;20035;-83
2022/07/28 05:09:10;;;;;;;;;;;;;;;;;;;;;
2022/07/28 05:11:41;;;;;;;1.52;0.45;;;14.00;99.90;;;;;;5060295;28;20053;-84
2022/07/28 05:14:18;;;;;;;1.65;0.40;;;14.30;99.90;;;;;;5047867;28;20036;-84
2022/07/28 05:17:17;;;;;;;2.17;0.40;;;14.50;99.90;;;;;;5031417;28;20027;-84
2022/07/28 05:20:12;;;;;;;3.78;0.40;;;14.70;99.60;;;;;;5047055;28;20047;-83
2022/07/28 05:23:03;;;;;;;2.35;0.45;;;14.80;99.40;;;;;;5065324;28;20028;-86
2022/07/28 05:25:47;;;;;;;2.75;0.60;;;14.70;99.30;;;;;;5060014;28;20060;-84
2022/07/28 05:28:17;;;;;;;1.35;0.30;;;14.70;99.30;;;;;;5045931;28;20032;-83
2022/07/28 05:31:07;;;;;;;4.65;0.50;;;14.60;99.30;;;;;;5062888;28;20044;-83
2022/07/28 05:33:48;;;;;;;1.48;0.40;;;14.70;99.30;;;;;;5051620;28;20036;-83
2022/07/28 05:36:23;;;;;;;5.22;0.57;;;14.80;99.20;;;;;;5027223;28;20033;-82
2022/07/28 05:39:01;;;;;;;;;;;15.10;99.00;;;;;;5039127;28;20033;-83
2022/07/28 05:41:29;;;;;;;3.75;0.47;;;15.30;98.60;;;;;;5020913;28;19922;-82
2022/07/28 05:44:31;;;;;;;3.10;0.50;;;15.40;98.30;;;;;;4996781;28;20045;-83
2022/07/28 05:47:12;;;;;;;2.88;0.40;;;15.70;98.30;;;;;;5033186;28;20049;-79
2022/07/28 05:49:45;;;;;;;2.47;0.50;;;15.80;97.90;;;;;;5020500;28;20460;-84
2022/07/28 05:52:35;;;;;;;2.88;0.40;;;15.90;97.90;;;;;;5024063;28;20377;-83
2022/07/28 05:55:25;;;;;;;4.43;0.45;;;16.10;97.70;;;;;;5036384;28;20048;-84
2022/07/28 05:57:59;;;;;;;4.78;0.63;;;16.10;97.30;;;;;;5052531;28;23118;-80
2022/07/28 06:00:42;;;;;;;2.63;0.50;;;16.20;97.20;;;;;;5020593;28;20029;-86
2022/07/28 06:03:14;;;;;;;3.33;0.40;;;16.30;97.20;;;;;;5027900;28;20055;-80
2022/07/28 06:05:49;;;;;;;3.83;0.40;;;16.30;96.60;;;;;;5022926;28;20053;-81
2022/07/28 06:08:35;;;;;;;10.85;7.90;;;16.30;96.60;;;;;;5011478;28;21302;-83
2022/07/28 06:11:17;;;;;;;4.78;0.68;;;16.40;96.50;;;;;;5032142;28;20036;-84
2022/07/28 06:13:57;;;;;;;2.92;0.70;;;16.60;96.20;;;;;;5044308;28;20041;-82
2022/07/28 06:16:26;;;;;;;2.58;0.40;;;16.60;96.20;;;;;;5047368;28;20044;-79
2022/07/28 06:18:56;;;;;;;4.10;0.40;;;16.80;96.20;;;;;;5031023;28;20032;-81
2022/07/28 06:21:24;;;;;;;2.97;0.50;;;17.00;96.00;;;;;;5064169;28;20047;-79
2022/07/28 06:23:51;;;;;;;7.10;0.70;;;17.20;95.60;;;;;;5061265;28;20353;-81
2022/07/28 06:26:20;;;;;;;2.78;0.77;;;17.30;95.20;;;;;;5063541;28;20041;-79
2022/07/28 06:28:57;;;;;;;2.08;0.47;;;17.40;95.20;;;;;;5060445;28;20043;-81
2022/07/28 06:31:24;;;;;;;4.13;0.43;;;17.60;95.10;;;;;;5062465;28;20036;-80
2022/07/28 06:33:51;;;;;;;1.75;0.40;;;17.70;94.90;;;;;;5026641;28;20459;-80
2022/07/28 06:36:22;;;;;;;3.63;0.40;;;17.80;94.80;;;;;;5032211;28;20041;-80
2022/07/28 06:39:11;;;;;;;2.65;0.40;;;17.90;94.70;;;;;;5045845;28;20052;-79
2022/07/28 06:41:49;;;;;;;3.58;0.40;;;18.00;94.20;;;;;;5066536;28;20040;-79
2022/07/28 06:44:23;;;;;;;2.60;0.80;;;18.20;94.10;;;;;;5047361;28;20510;-79
2022/07/28 06:46:57;;;;;;;3.88;0.50;;;18.50;93.50;;;;;;5062894;28;20586;-79
2022/07/28 06:49:47;;;;;;;3.50;0.60;;;18.90;93.30;;;;;;5061207;28;20028;-79
2022/07/28 06:52:54;;;;;;;2.72;0.40;;;19.20;92.40;;;;;;5045366;28;20032;-79
2022/07/28 06:55:34;;;;;;;1.88;0.47;;;19.20;91.80;;;;;;5060749;28;20491;-80
2022/07/28 06:58:05;;;;;;;1.83;0.40;;;18.90;91.50;;;;;;5014659;28;20454;-81
2022/07/28 07:00:47;;;;;;;2.13;0.45;;;18.70;91.80;;;;;;5058158;28;20059;-82
2022/07/28 07:03:39;;;;;;;3.47;0.40;;;18.60;91.70;;;;;;5039185;28;20478;-82
2022/07/28 07:06:11;;;;;;;3.90;0.40;;;18.50;91.90;;;;;;5032677;28;20134;-84
2022/07/28 07:08:52;;;;;;;;;;;;;;;;;;;;;
2022/07/28 07:11:34;;;;;;;3.08;0.45;;;18.50;91.70;;;;;;5013033;28;20044;-83
2022/07/28 07:14:15;;;;;;;1.52;0.30;;;18.50;91.50;;;;;;5044935;28;20345;-86
2022/07/28 07:17:16;;;;;;;2.42;0.40;;;18.50;91.40;;;;;;5043759;28;20021;-85
2022/07/28 07:20:23;;;;;;;3.95;0.60;;;18.60;91.60;;;;;;5060541;28;20032;-81
2022/07/28 07:22:59;;;;;;;4.80;0.65;;;18.70;91.10;;;;;;5044253;28;20048;-82
2022/07/28 07:25:28;;;;;;;2.55;0.40;;;18.70;90.90;;;;;;5044666;28;20041;-79
2022/07/28 07:27:54;;;;;;;2.22;0.43;;;18.70;90.60;;;;;;5059396;28;20041;-82
2022/07/28 07:30:30;;;;;;;2.22;0.30;;;18.70;90.00;;;;;;5045610;28;20132;-78
2022/07/28 07:33:04;;;;;;;1.70;0.30;;;18.60;90.00;;;;;;5033842;28;20036;-78
2022/07/28 07:35:36;;;;;;;1.77;0.30;;;18.70;90.30;;;;;;5058268;28;20048;-79
2022/07/28 07:38:13;;;;;;;6.10;0.40;;;18.90;90.20;;;;;;5044822;28;20051;-78
2022/07/28 07:40:52;;;;;;;1.85;0.40;;;19.20;89.40;;;;;;5059816;28;20353;-79
2022/07/28 07:43:30;;;;;;;4.72;1.52;;;19.30;88.20;;;;;;5046468;28;20578;-79
2022/07/28 07:46:24;;;;;;;1.20;0.45;;;19.40;88.40;;;;;;5047474;28;20422;-80
2022/07/28 07:48:57;;;;;;;1.88;0.30;;;19.60;88.20;;;;;;5045602;28;21362;-80
2022/07/28 07:51:49;;;;;;;2.75;0.30;;;19.70;86.60;;;;;;5058740;28;20052;-79
2022/07/28 07:54:17;;;;;;;3.22;0.30;;;19.80;85.90;;;;;;5031365;28;20103;-79
2022/07/28 07:56:47;;;;;;;4.15;0.98;;;19.80;85.30;;;;;;5044365;28;20049;-79
2022/07/28 07:59:14;;;;;;;2.10;0.30;;;19.80;85.30;;;;;;5046231;28;20056;-78
2022/07/28 08:01:41;;;;;;;1.13;0.22;;;19.70;84.90;;;;;;5062535;28;20072;-79
2022/07/28 08:04:09;;;;;;;4.45;0.30;;;19.80;84.50;;;;;;5060071;28;20035;-83
2022/07/28 08:06:37;;;;;;;1.42;0.28;;;19.80;83.90;;;;;;5028650;28;20053;-78
2022/07/28 08:09:04;;;;;;;2.20;0.30;;;19.80;83.90;;;;;;5062839;28;20032;-79
2022/07/28 08:11:34;;;;;;;2.65;0.40;;;20.00;83.00;;;;;;5061023;28;20021;-77
2022/07/28 08:14:03;;;;;;;2.00;0.40;;;20.00;81.40;;;;;;5060858;28;20032;-81
2022/07/28 08:16:29;;;;;;;1.48;0.30;;;19.90;81.20;;;;;;5047752;28;20507;-81
2022/07/28 08:18:58;;;;;;;1.23;0.30;;;19.80;81.50;;;;;;5046181;28;20029;-82
2022/07/28 08:21:25;;;;;;;1.13;0.30;;;19.70;81.40;;;;;;5062027;28;20048;-79
2022/07/28 08:23:57;;;;;;;1.15;0.28;;;19.50;81.50;;;;;;5043847;28;20043;-79
2022/07/28 08:26:24;;;;;;;1.95;0.30;;;19.60;82.00;;;;;;5063211;28;20049;-77
2022/07/28 08:28:51;;;;;;;1.60;0.30;;;19.70;81.70;;;;;;5060813;28;20036;-80
2022/07/28 08:31:20;;;;;;;1.55;0.20;;;19.80;82.20;;;;;;5061102;28;20028;-80
2022/07/28 08:33:51;;;;;;;1.73;0.32;;;19.90;82.10;;;;;;5058705;28;20024;-80
2022/07/28 08:36:17;;;;;;;0.85;0.28;;;20.30;81.50;;;;;;5044130;28;20036;-78
2022/07/28 08:38:44;;;;;;;1.95;0.43;;;20.60;78.80;;;;;;5042055;28;20035;-81
2022/07/28 08:41:29;;;;;;;1.58;0.70;;;20.70;78.40;;;;;;5061063;28;20079;-79
2022/07/28 08:43:58;;;;;;;1.58;0.50;;;21.00;77.90;;;;;;5059857;28;20021;-79
2022/07/28 08:46:25;;;;;;;3.85;1.02;;;21.20;76.90;;;;;;5063265;28;20032;-80
2022/07/28 08:48:52;;;;;;;1.52;0.40;;;21.20;76.70;;;;;;5064983;28;20037;-79
2022/07/28 08:51:20;;;;;;;1.67;0.30;;;21.40;76.50;;;;;;5034757;28;20032;-78
2022/07/28 08:53:48;;;;;;;1.58;0.30;;;21.60;76.30;;;;;;5062133;28;20830;-79
2022/07/28 08:56:15;;;;;;;1.00;0.30;;;21.80;75.30;;;;;;5061933;28;20044;-79
2022/07/28 08:58:43;;;;;;;1.77;0.40;;;21.80;74.30;;;;;;5050232;28;20044;-76
2022/07/28 09:01:12;;;;;;;2.78;0.40;;;21.80;74.20;;;;;;5064246;28;20388;-76
2022/07/28 09:04:31;;;;;;;2.72;0.50;;;21.90;74.40;;;;;;5064669;28;20037;-76
2022/07/28 09:07:04;;;;;;;1.35;0.30;;;22.00;73.80;;;;;;5045124;28;21376;-76
2022/07/28 09:09:32;;;;;;;1.08;0.30;;;22.10;73.80;;;;;;5047646;28;20059;-76
2022/07/28 09:12:04;;;;;;;2.20;0.30;;;22.10;73.70;;;;;;5065988;28;20040;-77
2022/07/28 09:14:39;;;;;;;1.33;0.30;;;22.20;72.90;;;;;;5046938;28;20033;-77
2022/07/28 09:17:21;;;;;;;3.28;0.40;;;22.20;72.20;;;;;;5050179;28;20024;-77
2022/07/28 09:19:48;;;;;;;5.18;0.30;;;22.20;71.70;;;;;;5051507;28;21188;-77
2022/07/28 09:22:52;;;;;;;2.53;0.40;;;22.20;71.80;;;;;;5039537;28;20041;-77
2022/07/28 09:25:18;;;;;;;1.50;0.40;;;22.30;71.80;;;;;;5016213;28;20024;-77
2022/07/28 09:27:46;;;;;;;15.80;12.32;;;22.40;71.00;;;;;;5014801;28;20388;-77
2022/07/28 09:30:13;;;;;;;3.58;1.92;;;22.50;71.10;;;;;;5030128;28;20037;-77
2022/07/28 09:32:42;;;;;;;1.90;0.65;;;22.50;70.70;;;;;;5061412;28;20032;-76
2022/07/28 09:35:19;;;;;;;0.95;0.30;;;22.60;70.30;;;;;;5046824;28;20037;-76
2022/07/28 09:37:58;;;;;;;1.48;0.30;;;22.70;68.60;;;;;;5049698;28;20041;-78
2022/07/28 09:41:05;;;;;;;2.25;0.30;;;22.60;66.90;;;;;;5048586;28;20049;-79
2022/07/28 09:44:47;;;;;;;0.68;0.25;;;22.50;67.10;;;;;;5051651;28;20107;-79
2022/07/28 09:47:26;;;;;;;0.75;0.20;;;22.70;67.30;;;;;;5027668;28;20508;-75
2022/07/28 09:49:53;;;;;;;1.55;0.20;;;22.80;67.70;;;;;;5020507;28;20040;-78
2022/07/28 09:52:39;;;;;;;1.40;0.38;;;22.90;68.30;;;;;;5035121;28;20056;-78
2022/07/28 09:56:29;;;;;;;0.63;0.20;;;23.10;67.60;;;;;;5018981;28;20044;-80
2022/07/28 09:58:58;;;;;;;0.85;0.30;;;23.40;67.50;;;;;;5060501;28;20040;-79
2022/07/28 10:01:48;;;;;;;0.60;0.20;;;23.60;66.90;;;;;;5059262;28;20048;-80
2022/07/28 10:04:29;;;;;;;0.80;0.20;;;23.80;67.10;;;;;;5027346;28;20379;-77
2022/07/28 10:07:08;;;;;;;0.85;0.28;;;24.20;66.70;;;;;;5064011;28;20511;-81
2022/07/28 10:09:36;;;;;;;2.00;0.38;;;24.30;64.90;;;;;;5062561;28;20091;-81
2022/07/28 10:12:20;;;;;;;1.70;0.28;;;24.30;63.50;;;;;;5025569;28;20044;-80
2022/07/28 10:14:52;;;;;;;2.58;0.45;;;24.10;64.10;;;;;;5045286;28;20048;-81
2022/07/28 10:17:31;;;;;;;2.20;0.30;;;24.20;64.10;;;;;;5063268;28;20383;-81
2022/07/28 10:19:59;;;;;;;1.90;0.30;;;24.20;64.40;;;;;;5065902;28;20031;-79
2022/07/28 10:22:31;;;;;;;2.20;0.40;;;24.50;63.60;;;;;;5064561;28;20028;-79
2022/07/28 10:25:04;;;;;;;0.43;0.20;;;24.60;62.70;;;;;;5057053;28;20025;-79
2022/07/28 10:27:31;;;;;;;2.42;0.40;;;24.80;62.70;;;;;;5064923;28;20059;-80
2022/07/28 10:30:04;;;;;;;3.90;1.25;;;24.80;61.80;;;;;;5062465;28;20024;-81
2022/07/28 10:32:43;;;;;;;2.35;0.60;;;24.90;61.40;;;;;;5046520;28;20032;-81
2022/07/28 10:35:13;;;;;;;1.38;0.40;;;25.00;61.40;;;;;;5061900;28;20040;-80
2022/07/28 10:37:48;;;;;;;1.30;0.30;;;25.10;61.40;;;;;;5064194;28;20036;-80
2022/07/28 10:40:15;;;;;;;1.00;0.20;;;25.20;60.20;;;;;;5064339;28;20099;-80
2022/07/28 10:42:41;;;;;;;1.10;0.20;;;25.10;60.70;;;;;;5049357;28;20051;-80
2022/07/28 10:45:10;;;;;;;1.63;0.25;;;25.30;61.40;;;;;;5043282;28;20048;-81
2022/07/28 10:47:37;;;;;;;0.70;0.50;;;25.50;61.00;;;;;;5044157;28;20037;-80
2022/07/28 10:50:04;;;;;;;3.20;1.20;;;25.80;60.40;;;;;;5060168;28;20029;-81
2022/07/28 10:52:38;;;;;;;3.15;1.65;;;26.00;60.50;;;;;;5057906;28;20471;-78
2022/07/28 10:55:26;;;;;;;1.27;0.50;;;26.20;60.30;;;;;;5026204;28;20056;-78
2022/07/28 10:58:34;;;;;;;1.58;0.60;;;26.40;59.80;;;;;;5043204;28;20040;-81
2022/07/28 11:01:39;;;;;;;1.85;0.30;;;26.70;58.90;;;;;;5030310;28;20091;-80
2022/07/28 11:04:55;;;;;;;0.80;0.38;;;26.90;56.60;;;;;;5060223;28;20135;-80
2022/07/28 11:07:57;;;;;;;1.00;0.20;;;27.10;57.00;;;;;;5046010;28;20490;-80
2022/07/28 11:10:59;;;;;;;0.65;0.20;;;27.40;56.90;;;;;;4996694;28;20046;-80
2022/07/28 11:13:51;;;;;;;0.85;0.20;;;27.50;55.70;;;;;;4971254;28;20530;-77
2022/07/28 11:16:27;;;;;;;1.65;0.28;;;27.60;55.20;;;;;;4984317;28;20042;-80
2022/07/28 11:24:11;;;;;;;0.93;0.20;;;27.90;52.80;;;;;;4990821;28;20054;-78
2022/07/28 11:27:04;;;;;;;1.38;0.55;;;28.10;53.90;;;;;;4869725;29;20067;-78
2022/07/28 11:30:04;;;;;;;2.22;0.30;;;28.50;53.30;;;;;;4967589;28;20046;-79
2022/07/28 11:33:44;;;;;;;1.95;0.50;;;28.60;51.50;;;;;;4975907;28;23121;-80
2022/07/28 11:36:28;;;;;;;1.55;0.30;;;28.70;51.90;;;;;;4905699;29;20542;-80
2022/07/28 11:39:33;;;;;;;1.77;0.28;;;29.00;51.10;;;;;;4939322;28;20374;-80
2022/07/28 11:43:18;;;;;;;1.40;0.30;;;29.30;51.30;;;;;;4982729;28;20037;-80
2022/07/28 11:46:40;;;;;;;1.63;0.30;;;29.60;51.10;;;;;;4926699;29;20423;-80
2022/07/28 11:49:26;;;;;;;0.90;0.30;;;30.20;51.20;;;;;;4938263;28;20598;-79
2022/07/28 11:52:24;;;;;;;0.73;0.20;;;30.70;48.90;;;;;;4963123;28;20045;-78
2022/07/28 11:55:04;;;;;;;2.13;0.50;;;30.50;47.80;;;;;;4974713;28;20044;-79
2022/07/28 11:57:57;;;;;;;1.88;0.45;;;30.50;48.60;;;;;;5021644;28;20049;-81
2022/07/28 12:00:25;;;;;;;0.57;0.20;;;30.70;48.20;;;;;;5003972;28;20046;-81
2022/07/28 12:02:54;;;;;;;1.30;0.30;;;30.90;48.00;;;;;;4992303;28;20156;-81
2022/07/28 12:05:21;;;;;;;1.88;0.32;;;31.10;47.40;;;;;;5023432;28;20045;-81
2022/07/28 12:07:50;;;;;;;2.63;0.30;;;31.20;47.10;;;;;;5005228;28;20042;-81
2022/07/28 12:10:34;;;;;;;1.63;0.32;;;31.20;47.10;;;;;;5005587;28;20033;-80
2022/07/28 12:13:06;;;;;;;2.42;0.40;;;31.20;46.80;;;;;;5005024;28;20037;-81
2022/07/28 12:15:35;;;;;;;1.95;0.30;;;31.50;46.70;;;;;;5021095;28;20180;-81
2022/07/28 12:18:02;;;;;;;1.30;0.30;;;31.80;45.20;;;;;;5043988;28;20482;-81
2022/07/28 12:20:30;;;;;;;0.63;0.25;;;32.20;45.20;;;;;;5060528;28;20040;-81
2022/07/28 12:22:59;;;;;;;1.70;0.20;;;32.60;45.40;;;;;;5065165;28;20029;-79
2022/07/28 12:25:26;;;;;;;2.15;0.30;;;33.10;44.10;;;;;;5062514;28;20032;-80
2022/07/28 12:27:59;;;;;;;1.02;0.30;;;33.40;43.60;;;;;;5063745;28;20020;-79
2022/07/28 12:30:27;;;;;;;2.28;0.30;;;33.90;43.50;;;;;;5048116;28;20021;-79
2022/07/28 12:32:54;;;;;;;1.27;0.32;;;34.50;43.20;;;;;;5065258;28;20028;-79
2022/07/28 12:35:22;;;;;;;1.27;0.20;;;34.40;42.60;;;;;;5062879;28;20467;-79
2022/07/28 12:37:49;;;;;;;0.82;0.30;;;34.30;42.10;;;;;;5063097;28;20036;-79
2022/07/28 12:40:17;;;;;;;2.10;0.60;;;33.90;42.10;;;;;;5046332;28;20035;-78
2022/07/28 12:42:52;;;;;;;1.35;0.30;;;33.40;42.50;;;;;;5061729;28;20198;-78
2022/07/28 12:45:20;;;;;;;1.42;0.30;;;33.00;42.60;;;;;;5062339;28;20033;-80
2022/07/28 12:47:47;;;;;;;2.33;0.70;;;33.10;42.90;;;;;;5046280;28;20021;-76
2022/07/28 12:50:18;;;;;;;7.22;5.15;;;33.00;43.10;;;;;;5063163;28;20028;-76
2022/07/28 12:53:03;;;;;;;2.50;0.98;;;32.80;43.60;;;;;;5063355;28;20032;-78
2022/07/28 12:55:31;;;;;;;1.67;0.40;;;33.60;42.80;;;;;;5060862;28;20016;-76
2022/07/28 12:57:58;;;;;;;2.05;0.20;;;34.50;42.00;;;;;;5061948;28;20037;-76
2022/07/28 13:00:32;;;;;;;0.75;0.20;;;35.50;40.80;;;;;;5040765;28;20020;-77
2022/07/28 13:03:19;;;;;;;1.35;0.50;;;36.00;40.40;;;;;;5063816;28;21023;-76
2022/07/28 13:06:04;;;;;;;3.88;0.40;;;36.50;39.70;;;;;;5058174;28;20019;-77
2022/07/28 13:08:44;;;;;;;1.85;0.40;;;36.90;38.50;;;;;;5061891;28;20025;-76
2022/07/28 13:11:12;;;;;;;2.67;0.45;;;37.20;38.40;;;;;;5061292;28;20023;-78
2022/07/28 13:13:50;;;;;;;2.10;0.38;;;37.50;38.40;;;;;;5062781;28;20051;-77
2022/07/28 13:16:22;;;;;;;1.08;0.30;;;37.70;37.20;;;;;;5061091;28;20025;-77
2022/07/28 13:18:58;;;;;;;1.40;0.30;;;37.80;37.40;;;;;;5063661;28;20025;-76
2022/07/28 13:21:44;;;;;;;1.42;0.30;;;37.70;37.60;;;;;;5063410;28;20017;-76
2022/07/28 13:24:14;;;;;;;2.25;0.25;;;37.40;37.20;;;;;;5061261;28;20020;-76
2022/07/28 13:26:43;;;;;;;1.52;0.30;;;36.90;37.40;;;;;;5063854;28;20039;-76
2022/07/28 13:29:11;;;;;;;1.40;0.30;;;36.90;38.10;;;;;;5064986;28;20032;-76
2022/07/28 13:31:38;;;;;;;1.15;0.35;;;37.50;38.10;;;;;;5063557;28;20375;-76
2022/07/28 13:34:06;;;;;;;1.77;0.40;;;38.10;37.70;;;;;;5059566;28;20048;-76
2022/07/28 13:36:34;;;;;;;1.17;0.20;;;38.60;36.60;;;;;;5047242;28;20017;-76
2022/07/28 13:39:00;;;;;;;2.15;0.30;;;38.30;36.00;;;;;;5061583;28;20364;-76
2022/07/28 13:41:27;;;;;;;1.45;0.28;;;36.90;36.60;;;;;;5061793;28;20020;-75
2022/07/28 13:43:57;;;;;;;3.30;0.30;;;35.40;37.70;;;;;;5059012;28;20044;-76
2022/07/28 13:46:27;;;;;;;1.83;0.30;;;34.10;39.00;;;;;;5047523;28;20043;-76
2022/07/28 13:48:54;;;;;;;2.17;0.30;;;33.30;39.70;;;;;;5061730;28;20029;-75
2022/07/28 13:51:20;;;;;;;1.50;0.40;;;32.70;40.20;;;;;;5062979;28;20044;-75
2022/07/28 13:53:48;;;;;;;2.58;0.40;;;32.10;41.10;;;;;;5062992;28;20037;-75